createdAt,value
2019-06-15T00:08:25.230Z,8.2
2019-06-15T00:22:59.476Z,7.2
2019-06-15T00:38:08.177Z,10
2019-06-15T00:52:35.092Z,9
2019-06-15T01:08:15.288Z,8.5
2019-06-15T01:23:31.056Z,7.9
2019-06-15T01:37:41.671Z,8.2
2019-06-15T01:53:13.237Z,10.4
2019-06-15T02:08:24.894Z,8.9
2019-06-15T02:22:55.931Z,8.1
2019-06-15T02:38:10.692Z,9.2
2019-06-15T02:53:33.492Z,9.6
2019-06-15T03:07:57.126Z,9.7
2019-06-15T03:23:40.730Z,9.8
2019-06-15T03:38:06.321Z,9.2
2019-06-15T03:53:31.562Z,9.9
2019-06-15T04:07:58.286Z,10.3
2019-06-15T04:23:11.303Z,12
2019-06-15T04:38:34.903Z,11.2
2019-06-15T04:53:53.978Z,10.3
2019-06-15T05:08:11.450Z,17.4
2019-06-15T05:23:32.889Z,25.6
2019-06-15T05:38:08.677Z,32.6
2019-06-15T05:53:27.493Z,35.1
2019-06-15T06:08:33.804Z,32.2
2019-06-15T06:22:52.865Z,31.3
2019-06-15T06:38:09.191Z,37.6
2019-06-15T06:53:05.810Z,41.6
2019-06-15T07:08:26.689Z,28.4
2019-06-15T07:23:44.599Z,30.4
2019-06-15T07:38:04.977Z,38.2
2019-06-15T07:53:24.828Z,22.7
2019-06-15T08:08:32.913Z,21.9
2019-06-15T08:23:02.608Z,13
2019-06-15T08:38:31.609Z,9.5
2019-06-15T08:53:35.360Z,11.1
2019-06-15T09:07:58.862Z,12.5
2019-06-15T09:23:11.505Z,7.1
2019-06-15T09:38:49.611Z,5.2
2019-06-15T09:53:37.424Z,5.4
2019-06-15T10:08:53.500Z,11.8
2019-06-15T10:23:19.339Z,16.9
2019-06-15T10:38:46.865Z,13.7
2019-06-15T10:53:10.366Z,7.1
2019-06-15T11:08:18.916Z,6.8
2019-06-15T11:23:33.470Z,3.4
2019-06-15T11:26:01.289Z,3.4
2019-06-15T11:38:06.646Z,2.5
2019-06-15T11:53:26.054Z,4
2019-06-15T12:08:48.702Z,5.3
2019-06-15T12:23:05.167Z,2.6
2019-06-15T12:38:01.850Z,2.9
2019-06-15T12:53:09.908Z,3.5
2019-06-15T13:08:15.691Z,3.5
2019-06-15T13:23:19.921Z,3.9
2019-06-15T13:38:26.980Z,6.1
2019-06-15T13:53:48.916Z,5
2019-06-15T14:08:51.407Z,4.4
2019-06-15T14:23:37.658Z,4.3
2019-06-15T14:38:41.768Z,4.6
2019-06-15T14:53:32.901Z,5.5
2019-06-15T15:08:33.018Z,4.6
2019-06-15T15:23:37.043Z,6.1
2019-06-15T15:38:56.079Z,6.6
2019-06-15T15:53:47.050Z,5.8
2019-06-15T16:08:51.041Z,5.4
2019-06-15T16:23:46.366Z,6
2019-06-15T16:39:02.186Z,6.3
2019-06-15T16:53:33.024Z,4.5
2019-06-15T17:08:56.701Z,6.5
2019-06-15T17:23:59.489Z,4.8
2019-06-15T17:38:42.076Z,6.6
2019-06-15T17:53:40.140Z,6
2019-06-15T18:08:55.049Z,5
2019-06-15T18:23:57.305Z,5.9
2019-06-15T18:38:52.035Z,6.1
2019-06-15T18:53:49.824Z,7.2
2019-06-15T19:08:58.478Z,6.4
2019-06-15T19:24:02.998Z,7.8
2019-06-15T19:39:16.559Z,5.9
2019-06-15T19:53:32.242Z,6.7
2019-06-15T20:08:39.425Z,8.1
2019-06-15T20:23:49.254Z,8.2
2019-06-15T20:39:00.798Z,9.9
2019-06-15T20:54:09.459Z,7.5
2019-06-15T21:09:11.626Z,7.5
2019-06-15T21:24:11.245Z,7.5
2019-06-15T21:39:07.400Z,7.1
2019-06-15T22:08:52.663Z,7.6
2019-06-15T22:23:56.259Z,13.3
2019-06-15T22:38:46.231Z,11.3
2019-06-15T22:53:36.228Z,9.1
2019-06-15T23:08:58.661Z,9.3
2019-06-15T23:24:16.795Z,10
2019-06-15T23:39:16.477Z,10.7
2019-06-15T23:54:02.131Z,10.5
